Time;durP1;ratioP1;P1;durP2;ratioP2;P2;SDS_P1;SDS_P2;PMS_P1;PMS_P2;Temp;Humidity;BMP_temperature;BMP_pressure;BME280_temperature;BME280_humidity;BME280_pressure;Samples;Min_cycle;Max_cycle;Signal;HPM_P1;HPM_P2
2022/03/27 00:01:08;;;;;;;15.53;8.37;;;9.60;44.40;;;9.71;37.91;95857.09;5083117;28;20453;-57
2022/03/27 00:03:35;;;;;;;20.23;7.63;;;9.60;44.40;;;9.70;38.23;95853.66;5073008;28;20465;-55
2022/03/27 00:06:03;;;;;;;19.97;7.30;;;9.60;44.20;;;9.69;37.45;95857.22;5078169;28;20614;-55
2022/03/27 00:08:30;;;;;;;23.03;8.93;;;9.60;44.20;;;9.69;37.71;95850.16;5078717;28;20564;-55
2022/03/27 00:13:42;;;;;;;19.60;7.30;;;9.60;44.50;;;9.68;37.70;95843.25;5081042;28;20949;-58
2022/03/27 00:16:11;;;;;;;23.93;7.43;;;9.60;44.20;;;9.69;37.31;95846.69;5076556;28;20451;-57
2022/03/27 00:18:38;;;;;;;17.03;6.90;;;9.60;44.20;;;9.68;37.70;95839.75;5074998;28;20534;-55
2022/03/27 00:21:05;;;;;;;17.37;7.13;;;9.60;44.20;;;9.69;37.83;95844.91;5079605;28;20903;-54
2022/03/27 00:23:33;;;;;;;17.00;6.53;;;9.60;44.50;;;9.72;37.45;95840.41;5078425;28;20474;-53
2022/03/27 00:26:00;;;;;;;11.07;6.63;;;9.60;44.40;;;9.73;37.36;95839.44;5074592;28;20490;-56
2022/03/27 00:28:32;;;;;;;17.70;6.63;;;9.60;44.20;;;9.72;37.64;95843.84;5081686;28;20474;-56
2022/03/27 00:31:00;;;;;;;12.63;7.47;;;9.60;44.30;;;9.71;37.71;95836.09;5069458;28;20477;-57
2022/03/27 00:33:29;;;;;;;21.33;8.03;;;9.60;44.20;;;9.72;37.92;95837.78;5075950;28;20470;-58
2022/03/27 00:35:56;;;;;;;20.30;8.40;;;9.60;44.40;;;9.72;37.63;95832.53;5081543;28;20446;-57
2022/03/27 00:38:24;;;;;;;21.23;8.27;;;9.60;44.30;;;9.71;37.89;95828.19;5071865;28;20462;-59
2022/03/27 00:40:51;;;;;;;17.80;8.00;;;9.60;44.50;;;9.70;37.91;95830.00;5075421;28;20458;-57
2022/03/27 00:43:19;;;;;;;25.83;9.80;;;9.60;44.30;;;9.69;37.85;95820.44;5083134;28;20484;-54
2022/03/27 00:45:46;;;;;;;20.83;9.10;;;9.60;44.60;;;9.67;37.96;95824.97;5071691;28;20446;-58
2022/03/27 00:48:14;;;;;;;32.17;8.03;;;9.60;44.40;;;9.66;37.23;95821.47;5076360;28;20473;-56
2022/03/27 00:50:42;;;;;;;14.93;7.87;;;9.60;44.20;;;9.62;38.29;95817.41;5080921;28;20720;-58
2022/03/27 00:53:10;;;;;;;22.20;8.50;;;9.60;44.80;;;9.59;37.55;95814.16;5057226;28;20521;-55
2022/03/27 00:55:37;;;;;;;23.47;9.40;;;9.50;44.20;;;9.54;38.13;95814.47;5077544;28;20446;-56
2022/03/27 00:58:05;;;;;;;17.10;9.07;;;9.50;44.40;;;9.49;37.90;95822.69;5078976;28;20513;-58
2022/03/27 01:00:51;;;;;;;21.27;9.57;;;9.50;44.70;;;9.42;38.24;95813.59;5069160;28;20454;-58
2022/03/27 01:03:20;;;;;;;17.93;9.23;;;9.40;44.50;;;9.37;38.19;95804.34;5075662;28;20469;-55
2022/03/27 01:05:49;;;;;;;25.70;10.43;;;9.30;44.60;;;9.30;38.01;95809.22;5074227;28;20895;-55
2022/03/27 01:09:35;;;;;;;20.60;9.57;;;9.30;44.80;;;9.24;38.13;95807.84;5068081;28;20473;-58
2022/03/27 01:11:10;;;;;;;17.37;7.00;;;9.20;44.70;;;9.20;38.28;95802.94;5075446;28;20482;-54
2022/03/27 01:13:40;;;;;;;22.87;9.50;;;9.20;45.50;;;9.18;38.37;95803.03;5070558;28;20463;-56
2022/03/27 01:16:12;;;;;;;21.40;8.20;;;9.10;44.80;;;9.15;38.18;95795.38;5073106;28;20458;-55
2022/03/27 01:18:40;;;;;;;21.50;8.40;;;9.10;44.80;;;9.13;38.14;95799.91;5076407;28;20969;-56
2022/03/27 01:21:11;;;;;;;23.13;9.10;;;9.10;45.10;;;9.09;38.05;95801.06;5071220;28;20888;-57
2022/03/27 01:23:38;;;;;;;23.20;9.77;;;9.10;44.90;;;9.03;38.19;95810.22;5074667;28;20548;-57
2022/03/27 01:26:05;;;;;;;22.60;9.77;;;9.00;44.80;;;9.01;38.32;95808.63;5080986;28;20517;-57
2022/03/27 01:28:32;;;;;;;22.67;9.60;;;9.00;44.80;;;8.95;38.49;95802.88;5068392;28;21028;-59
2022/03/27 01:31:00;;;;;;;25.93;8.57;;;8.90;45.00;;;8.90;38.68;95799.72;5072598;28;20505;-53
2022/03/27 01:33:28;;;;;;;15.23;8.60;;;8.90;44.80;;;8.86;38.64;95800.03;5080263;28;20923;-56
2022/03/27 01:35:55;;;;;;;17.40;8.43;;;8.90;45.00;;;8.81;37.93;95795.09;5068533;28;20451;-55
2022/03/27 01:38:24;;;;;;;21.33;8.40;;;8.80;44.90;;;8.77;38.05;95797.09;5077747;28;20474;-58
2022/03/27 01:40:51;;;;;;;25.17;7.90;;;8.80;44.90;;;8.74;38.16;95801.75;5080431;28;20458;-56
2022/03/27 01:43:18;;;;;;;30.10;9.87;;;8.70;44.70;;;8.69;38.59;95806.44;5063085;28;20810;-57
2022/03/27 01:45:45;;;;;;;24.93;9.67;;;8.70;44.90;;;8.63;38.26;95805.09;5076003;28;20447;-56
2022/03/27 01:48:13;;;;;;;26.60;9.40;;;8.60;45.00;;;8.56;38.34;95809.91;5078430;28;20541;-57
2022/03/27 01:50:40;;;;;;;26.93;9.90;;;8.60;45.10;;;8.49;38.64;95803.41;5070470;28;20494;-54
2022/03/27 01:53:07;;;;;;;25.50;8.73;;;8.50;44.90;;;8.39;38.61;95800.50;5076182;28;20470;-58
2022/03/27 01:55:36;;;;;;;21.10;9.87;;;8.40;44.80;;;8.33;38.70;95800.09;5077586;28;20457;-55
2022/03/27 01:58:03;;;;;;;23.10;10.23;;;8.30;44.60;;;8.30;38.12;95797.69;5071378;28;20552;-59
2022/03/27 02:00:31;;;;;;;18.93;8.50;;;8.30;45.00;;;8.26;38.48;95800.50;5075403;28;20451;-54
2022/03/27 02:02:59;;;;;;;22.60;9.00;;;8.30;44.90;;;8.23;38.82;95799.88;5070784;28;20534;-56
2022/03/27 02:05:27;;;;;;;29.70;9.97;;;8.20;45.80;;;8.17;39.52;95800.28;5072838;28;20451;-56
2022/03/27 02:07:54;;;;;;;18.83;8.87;;;8.20;45.90;;;8.10;38.89;95802.47;5077306;28;20475;-55
2022/03/27 02:10:21;;;;;;;19.67;8.30;;;8.10;45.50;;;8.06;38.86;95804.44;5067534;28;20464;-53
2022/03/27 02:12:50;;;;;;;33.97;9.23;;;8.00;45.00;;;8.04;39.36;95803.72;5071394;28;21006;-57
2022/03/27 02:15:17;;;;;;;23.33;9.30;;;8.00;45.60;;;8.02;38.79;95804.75;5079845;28;20455;-57
2022/03/27 02:17:45;;;;;;;23.83;8.40;;;8.00;45.30;;;8.01;39.22;95803.06;5072482;28;21010;-57
2022/03/27 02:20:14;;;;;;;18.23;7.70;;;8.00;45.40;;;7.98;39.14;95801.50;5069778;28;20516;-57
2022/03/27 02:22:41;;;;;;;21.87;7.93;;;8.00;45.40;;;7.95;39.19;95800.84;5079556;28;20515;-54
2022/03/27 02:25:09;;;;;;;16.57;7.97;;;7.90;45.80;;;7.89;39.89;95808.19;5065518;28;20525;-55
2022/03/27 02:27:37;;;;;;;23.17;9.40;;;7.90;46.30;;;7.83;39.24;95803.34;5074321;28;21006;-55
2022/03/27 02:30:08;;;;;;;21.83;9.57;;;7.80;45.70;;;7.80;39.44;95808.78;5076668;28;20881;-55
2022/03/27 02:32:35;;;;;;;23.97;8.17;;;7.80;45.70;;;7.79;39.01;95811.50;5064534;28;20574;-57
2022/03/27 02:35:03;;;;;;;17.80;8.50;;;7.80;45.80;;;7.78;38.86;95808.03;5075829;28;20455;-54
2022/03/27 02:37:30;;;;;;;18.53;7.07;;;7.80;45.60;;;7.79;39.10;95814.13;5077564;28;20526;-57
2022/03/27 02:39:57;;;;;;;18.10;7.60;;;7.80;45.60;;;7.79;39.49;95817.59;5065398;28;20447;-57
2022/03/27 02:42:25;;;;;;;20.37;8.40;;;7.80;45.60;;;7.78;38.92;95820.31;5071541;28;21006;-59
2022/03/27 02:44:52;;;;;;;18.03;8.63;;;7.80;46.10;;;7.77;39.38;95814.22;5081006;28;20533;-54
2022/03/27 02:47:20;;;;;;;21.53;7.47;;;7.80;45.60;;;7.77;39.03;95832.53;5066913;28;20478;-56
2022/03/27 02:49:48;;;;;;;15.70;8.90;;;7.80;46.00;;;7.76;39.12;95828.28;5072908;28;20453;-55
2022/03/27 02:52:16;;;;;;;15.93;7.73;;;7.70;46.00;;;7.76;39.04;95828.28;5071723;28;20487;-55
2022/03/27 02:54:44;;;;;;;18.83;8.50;;;7.70;45.90;;;7.75;39.24;95830.97;5068241;28;20477;-59
2022/03/27 02:57:11;;;;;;;17.83;8.50;;;7.80;45.80;;;7.75;38.91;95839.66;5079810;28;20556;-55
2022/03/27 02:59:39;;;;;;;19.00;9.30;;;7.70;45.80;;;7.75;39.09;95836.22;5076829;28;20459;-56
2022/03/27 03:02:08;;;;;;;16.60;7.83;;;7.70;45.90;;;7.74;39.53;95835.34;5068685;28;20478;-55
2022/03/27 03:04:36;;;;;;;15.40;7.30;;;7.70;45.90;;;7.74;39.21;95832.75;5073748;28;20454;-58
2022/03/27 03:07:04;;;;;;;19.83;8.20;;;7.70;46.10;;;7.73;39.56;95836.31;5066875;28;20474;-57
2022/03/27 03:09:32;;;;;;;25.93;7.83;;;7.70;46.20;;;7.71;39.87;95835.56;5070489;28;20450;-54
2022/03/27 03:12:00;;;;;;;26.00;8.90;;;7.70;46.40;;;7.69;39.47;95826.97;5068794;28;20491;-57
2022/03/27 03:14:28;;;;;;;34.67;8.80;;;7.70;46.60;;;7.67;39.62;95831.47;5074252;28;20465;-56
2022/03/27 03:16:55;;;;;;;17.77;7.73;;;7.70;46.60;;;7.65;40.23;95842.03;5072582;28;20891;-55
2022/03/27 03:19:24;;;;;;;24.77;8.73;;;7.70;46.50;;;7.63;39.42;95845.69;5076220;28;20962;-57
2022/03/27 03:21:53;;;;;;;17.40;7.83;;;7.60;46.40;;;7.61;40.29;95837.94;5063539;28;20486;-57
2022/03/27 03:24:20;;;;;;;21.03;8.20;;;7.60;46.70;;;7.57;39.71;95846.09;5071680;28;20453;-56
2022/03/27 03:26:49;;;;;;;16.93;8.27;;;7.60;46.40;;;7.49;40.22;95836.91;5074919;28;20527;-56
2022/03/27 03:29:16;;;;;;;24.90;9.17;;;7.50;46.60;;;7.47;40.04;95837.97;5072033;28;20955;-54
2022/03/27 03:31:43;;;;;;;19.03;9.90;;;7.50;46.70;;;7.44;39.97;95843.41;5074025;28;21017;-56
2022/03/27 03:34:11;;;;;;;26.40;9.47;;;7.50;47.00;;;7.43;40.78;95844.34;5074211;28;20454;-58
2022/03/27 03:36:38;;;;;;;21.00;8.60;;;7.40;47.00;;;7.40;41.03;95850.59;5062071;28;20470;-57
2022/03/27 03:39:07;;;;;;;20.23;8.97;;;7.40;47.00;;;7.36;41.32;95842.09;5070730;28;20462;-54
2022/03/27 03:41:34;;;;;;;22.60;9.33;;;7.40;47.40;;;7.36;40.75;95842.09;5079759;28;20961;-57
2022/03/27 03:44:01;;;;;;;20.90;10.03;;;7.40;47.70;;;7.33;40.48;95841.47;5060976;28;20454;-55
2022/03/27 03:46:29;;;;;;;20.40;10.53;;;7.30;47.30;;;7.33;40.63;95842.28;5075779;28;20446;-55
2022/03/27 03:48:56;;;;;;;27.90;9.90;;;7.30;47.30;;;7.33;40.46;95846.69;5078552;28;20473;-56
2022/03/27 03:51:23;;;;;;;22.00;9.03;;;7.30;47.50;;;7.31;40.59;95843.31;5066550;28;20493;-57
2022/03/27 03:53:50;;;;;;;26.13;10.00;;;7.30;47.50;;;7.30;41.15;95852.13;5074373;28;20442;-53
2022/03/27 03:56:19;;;;;;;24.77;8.37;;;7.30;47.60;;;7.28;40.79;95848.72;5077834;28;20455;-61
2022/03/27 03:58:46;;;;;;;22.30;10.50;;;7.30;47.50;;;7.28;40.96;95848.72;5069854;28;20457;-56
2022/03/27 04:01:16;;;;;;;17.23;8.60;;;7.30;47.40;;;7.27;40.57;95854.94;5075867;28;20525;-54
2022/03/27 04:03:43;;;;;;;25.30;10.43;;;7.30;47.50;;;7.25;40.51;95859.41;5070156;28;20444;-58
2022/03/27 04:06:11;;;;;;;22.03;9.73;;;7.30;47.50;;;7.24;40.61;95852.50;5070098;28;20450;-56
2022/03/27 04:08:38;;;;;;;22.73;12.47;;;7.20;47.50;;;7.24;40.92;95865.59;5074068;28;20474;-58
2022/03/27 04:11:05;;;;;;;31.10;11.20;;;7.30;47.60;;;7.23;40.74;95862.09;5076284;28;20931;-56
2022/03/27 04:13:34;;;;;;;23.60;11.43;;;7.20;47.80;;;7.20;40.97;95866.69;5066679;28;20528;-55
2022/03/27 04:16:02;;;;;;;24.90;10.60;;;7.20;48.00;;;7.17;41.24;95873.81;5071282;28;20453;-56
2022/03/27 04:18:29;;;;;;;25.10;11.17;;;7.20;47.80;;;7.15;41.19;95870.44;5070657;28;20478;-55
2022/03/27 04:20:56;;;;;;;33.93;12.40;;;7.20;47.80;;;7.14;40.77;95871.38;5070423;28;20543;-56
2022/03/27 04:23:23;;;;;;;21.43;11.17;;;7.10;47.70;;;7.14;41.26;95876.63;5072174;28;20981;-55
2022/03/27 04:25:51;;;;;;;23.57;10.70;;;7.20;48.00;;;7.15;41.61;95877.44;5069839;28;20449;-56
2022/03/27 04:28:18;;;;;;;20.20;10.47;;;7.20;48.00;;;7.14;41.58;95878.38;5071893;28;20470;-56
2022/03/27 04:30:47;;;;;;;17.10;10.37;;;7.20;48.30;;;7.12;41.46;95870.59;5077384;28;20464;-57
2022/03/27 04:33:14;;;;;;;26.83;10.97;;;7.20;48.30;;;7.13;41.39;95882.78;5061272;28;20504;-56
2022/03/27 04:35:41;;;;;;;26.90;10.60;;;7.20;48.40;;;7.12;41.37;95881.06;5073935;28;20446;-57
2022/03/27 04:38:08;;;;;;;18.20;10.33;;;7.20;48.40;;;7.13;41.66;95888.00;5079121;28;20558;-55
2022/03/27 04:40:36;;;;;;;30.87;11.23;;;7.10;48.30;;;7.13;42.11;95889.78;5070488;28;20458;-56
2022/03/27 04:43:03;;;;;;;24.00;12.30;;;7.10;48.50;;;7.13;41.42;95897.63;5076793;28;20997;-56
2022/03/27 04:45:30;;;;;;;25.47;11.23;;;7.10;48.40;;;7.12;41.96;95895.94;5076347;28;20524;-56
2022/03/27 04:47:59;;;;;;;32.90;12.60;;;7.10;48.40;;;7.13;42.04;95902.88;5070422;28;20526;-57
2022/03/27 04:50:27;;;;;;;34.73;11.80;;;7.10;48.60;;;7.12;41.95;95907.25;5078269;28;20485;-57
2022/03/27 04:52:54;;;;;;;29.57;12.47;;;7.10;48.70;;;7.14;42.18;95909.75;5071163;28;20490;-57
2022/03/27 04:55:21;;;;;;;33.83;13.37;;;7.10;49.10;;;7.14;42.09;95910.63;5070220;28;21147;-57
2022/03/27 04:57:49;;;;;;;31.43;12.67;;;7.20;49.70;;;7.16;42.15;95910.53;5075410;28;20466;-58
2022/03/27 05:00:18;;;;;;;29.30;11.97;;;7.20;49.00;;;7.15;42.17;95914.91;5081736;28;20569;-56
2022/03/27 05:02:45;;;;;;;24.97;13.63;;;7.20;48.90;;;7.15;42.20;95914.91;5069551;28;20562;-54
2022/03/27 05:05:15;;;;;;;33.93;13.40;;;7.20;49.20;;;7.18;42.42;95924.34;5071590;28;20459;-55
2022/03/27 05:07:43;;;;;;;32.50;13.63;;;7.20;49.40;;;7.23;42.51;95911.81;5065452;28;20554;-54
2022/03/27 05:10:12;;;;;;;42.33;13.60;;;7.20;49.60;;;7.40;42.58;95916.03;5066179;28;20475;-57
2022/03/27 05:12:40;;;;;;;30.80;12.70;;;7.40;49.80;;;7.59;43.04;95912.25;5073943;28;20921;-57
2022/03/27 05:15:09;;;;;;;25.83;12.60;;;7.60;49.90;;;7.74;42.63;95926.19;5076021;28;20840;-57
2022/03/27 05:17:49;;;;;;;28.97;13.13;;;7.70;49.50;;;7.84;42.17;95927.31;5070425;28;20478;-57
2022/03/27 05:20:18;;;;;;;31.40;13.07;;;7.90;49.30;;;7.86;41.76;95921.00;5082622;28;20468;-57
2022/03/27 05:22:47;;;;;;;30.33;12.50;;;7.90;49.60;;;7.91;41.62;95925.94;5071955;28;20558;-54
2022/03/27 05:25:16;;;;;;;33.73;13.17;;;7.90;49.20;;;7.99;42.12;95928.09;5076058;28;20458;-57
2022/03/27 05:27:46;;;;;;;23.53;12.63;;;8.00;49.50;;;8.06;41.52;95924.97;5071093;28;20552;-57
2022/03/27 05:30:13;;;;;;;31.80;12.37;;;8.10;48.90;;;8.08;41.46;95927.50;5070062;28;20450;-56
2022/03/27 05:32:40;;;;;;;29.00;12.40;;;8.10;48.70;;;8.08;41.22;95932.75;5072957;28;20497;-55
2022/03/27 05:35:09;;;;;;;28.63;13.00;;;8.10;48.50;;;8.04;42.17;95932.09;5080823;28;20446;-54
2022/03/27 05:37:38;;;;;;;18.60;12.40;;;8.10;48.90;;;8.02;42.11;95933.13;5068361;28;20887;-57
2022/03/27 05:40:07;;;;;;;29.67;13.20;;;8.00;48.70;;;7.99;42.16;95939.41;5073971;28;20446;-57
2022/03/27 05:42:35;;;;;;;29.17;13.50;;;8.00;49.10;;;8.01;42.48;95936.69;5080288;28;20565;-58
2022/03/27 05:45:02;;;;;;;31.10;14.10;;;8.00;49.30;;;8.06;42.00;95929.38;5070286;28;20789;-59
2022/03/27 05:47:30;;;;;;;27.17;14.17;;;8.10;49.70;;;8.15;42.24;95943.66;5073287;28;20482;-57
2022/03/27 05:49:57;;;;;;;27.47;12.50;;;8.10;49.40;;;8.20;42.21;95937.19;5071554;28;20451;-57
2022/03/27 05:52:24;;;;;;;29.43;13.10;;;8.20;49.30;;;8.31;43.59;95941.75;5068997;28;21055;-58
2022/03/27 05:54:53;;;;;;;34.57;13.83;;;8.30;50.60;;;8.46;41.66;95944.31;5070664;28;20963;-54
2022/03/27 05:57:20;;;;;;;38.40;17.20;;;8.30;49.40;;;8.60;41.71;95939.03;5071102;28;20470;-58
2022/03/27 05:59:48;;;;;;;36.90;16.47;;;8.50;49.00;;;8.80;41.90;95942.97;5071060;28;20459;-58
2022/03/27 06:02:15;;;;;;;34.00;15.33;;;8.70;48.90;;;9.02;41.00;95949.41;5071557;28;20479;-53
2022/03/27 06:04:42;;;;;;;30.77;15.57;;;8.80;49.40;;;9.23;40.96;95945.28;5069419;28;20457;-57
2022/03/27 06:07:10;;;;;;;33.60;15.43;;;9.00;48.30;;;9.44;40.78;95945.59;5068548;28;20558;-58
2022/03/27 06:09:37;;;;;;;32.60;14.57;;;9.30;48.50;;;9.64;40.11;95948.66;5072186;28;20512;-56
2022/03/27 06:12:08;;;;;;;41.93;18.57;;;9.40;47.90;;;9.81;40.00;95948.28;5065453;28;20870;-58
2022/03/27 06:14:35;;;;;;;36.83;16.03;;;9.70;47.70;;;10.04;40.01;95946.66;5069462;28;20436;-56
2022/03/27 06:17:02;;;;;;;36.37;15.80;;;9.90;47.60;;;10.26;39.77;95947.75;5071256;28;20467;-57
2022/03/27 06:19:31;;;;;;;35.03;16.60;;;10.10;46.40;;;10.50;39.17;95949.56;5069378;28;20451;-55
2022/03/27 06:21:59;;;;;;;39.13;15.80;;;10.30;46.20;;;10.73;39.24;95956.56;5070417;28;21025;-56
2022/03/27 06:24:26;;;;;;;37.03;15.07;;;10.50;46.00;;;10.99;39.01;95947.72;5069428;28;20454;-56
2022/03/27 06:26:53;;;;;;;30.70;15.33;;;10.70;45.60;;;11.23;38.60;95947.63;5069074;28;20528;-56
2022/03/27 06:29:22;;;;;;;27.17;14.93;;;11.00;45.40;;;11.47;38.30;95937.84;5071475;28;20496;-55
2022/03/27 06:31:50;;;;;;;34.40;15.10;;;11.20;45.00;;;11.73;38.12;95937.63;5075135;28;20857;-59
2022/03/27 06:34:18;;;;;;;25.93;13.30;;;11.50;44.90;;;11.92;37.95;95939.66;5072221;28;20466;-59
2022/03/27 06:36:46;;;;;;;47.90;16.07;;;11.70;44.80;;;12.13;37.60;95939.75;5069748;28;20518;-59
2022/03/27 06:39:13;;;;;;;41.57;15.10;;;11.90;44.50;;;12.45;37.24;95936.28;5076151;28;20499;-57
2022/03/27 06:41:40;;;;;;;24.63;14.73;;;12.10;44.20;;;12.74;37.08;95941.81;5066467;28;20511;-59
2022/03/27 06:44:08;;;;;;;29.93;12.80;;;12.40;43.80;;;13.06;36.77;95942.78;5073205;28;20478;-55
2022/03/27 06:46:38;;;;;;;30.90;12.73;;;12.70;43.30;;;13.37;36.06;95941.06;5078378;28;20580;-59
2022/03/27 06:49:06;;;;;;;28.80;14.13;;;13.00;43.40;;;13.67;35.75;95949.13;5065844;28;20439;-59
2022/03/27 06:51:34;;;;;;;32.63;14.10;;;13.30;42.60;;;13.94;35.29;95952.03;5075811;28;20490;-56
2022/03/27 06:54:01;;;;;;;29.43;13.57;;;13.60;42.40;;;14.19;35.12;95949.88;5072736;28;20515;-58
2022/03/27 06:56:29;;;;;;;29.50;15.53;;;13.90;41.90;;;14.46;34.78;95958.97;5070218;28;20463;-57
2022/03/27 06:58:56;;;;;;;32.33;15.13;;;14.10;41.50;;;14.71;34.31;95955.00;5076940;28;20832;-57
2022/03/27 07:04:09;;;;;;;28.93;14.23;;;14.60;41.00;;;15.24;33.95;95943.09;5071519;28;20912;-58
2022/03/27 07:06:42;;;;;;;36.27;15.40;;;14.90;40.70;;;15.37;33.62;95946.28;5079224;28;20571;-55
2022/03/27 07:09:10;;;;;;;33.23;13.27;;;15.00;40.30;;;15.48;33.36;95933.88;5062889;28;20983;-58
2022/03/27 07:11:37;;;;;;;26.60;14.43;;;15.20;40.20;;;15.73;33.21;95941.16;5069985;28;20477;-58
2022/03/27 07:14:04;;;;;;;29.93;13.50;;;15.30;40.10;;;16.11;33.20;95939.38;5077721;28;21067;-57
2022/03/27 07:16:32;;;;;;;25.50;12.70;;;15.60;40.00;;;16.52;32.75;95946.13;5073103;28;20497;-57
2022/03/27 07:18:59;;;;;;;22.87;13.70;;;16.00;39.70;;;16.97;32.53;95950.56;5069832;28;20462;-57
2022/03/27 07:21:28;;;;;;;45.03;14.27;;;16.50;39.60;;;17.44;31.98;95952.91;5079949;28;20842;-55
2022/03/27 07:23:55;;;;;;;23.20;12.50;;;16.90;39.10;;;17.85;31.38;95950.50;5068371;28;20532;-58
2022/03/27 07:26:22;;;;;;;26.03;11.87;;;17.30;38.60;;;18.26;31.38;95948.06;5071870;28;20508;-57
2022/03/27 07:28:49;;;;;;;28.23;10.90;;;17.70;37.90;;;18.67;30.86;95946.50;5078263;28;20450;-57
2022/03/27 07:31:17;;;;;;;19.87;12.00;;;18.20;37.40;;;19.04;30.60;95940.75;5067441;28;20508;-57
2022/03/27 07:33:44;;;;;;;24.37;12.00;;;18.50;37.30;;;19.45;29.88;95935.41;5070366;28;20486;-59
2022/03/27 07:36:11;;;;;;;20.63;11.40;;;18.90;37.00;;;19.94;30.06;95937.16;5073788;28;21316;-56
2022/03/27 07:38:40;;;;;;;24.97;12.97;;;19.40;37.00;;;20.46;29.44;95933.09;5066737;28;20467;-57
2022/03/27 07:41:07;;;;;;;19.80;9.93;;;19.90;36.60;;;20.98;29.16;95923.63;5074796;28;20872;-56
2022/03/27 07:43:35;;;;;;;29.97;10.57;;;20.40;36.40;;;21.53;28.85;95932.38;5077876;28;21124;-58
2022/03/27 07:46:02;;;;;;;21.17;10.73;;;20.90;36.20;;;22.10;28.69;95919.38;5067728;28;20505;-58
2022/03/27 07:48:29;;;;;;;19.03;11.10;;;21.50;35.80;;;22.69;27.76;95923.84;5072120;28;20470;-55
2022/03/27 07:50:57;;;;;;;28.40;11.57;;;22.00;35.30;;;23.24;27.08;95924.22;5076011;28;20451;-57
2022/03/27 07:53:24;;;;;;;24.83;11.20;;;22.70;34.40;;;23.76;27.21;95919.44;5069139;28;20487;-58
2022/03/27 07:55:53;;;;;;;20.37;9.33;;;23.30;34.00;;;24.24;26.03;95924.06;5077325;28;20451;-57
2022/03/27 07:58:20;;;;;;;27.63;9.87;;;23.80;33.30;;;24.69;25.69;95919.09;5069864;28;20898;-56
2022/03/27 08:00:47;;;;;;;17.37;9.10;;;24.40;32.70;;;25.13;25.12;95916.91;5072272;28;20530;-57
2022/03/27 08:03:15;;;;;;;18.63;7.80;;;24.90;32.00;;;25.52;24.50;95913.44;5059855;28;21013;-57
2022/03/27 08:05:43;;;;;;;17.70;8.70;;;25.30;30.50;;;25.91;24.25;95910.91;5070224;28;20569;-56
2022/03/27 08:08:10;;;;;;;14.93;9.17;;;25.60;30.70;;;26.21;23.56;95919.38;5065560;28;21104;-57
2022/03/27 08:10:38;;;;;;;19.43;9.93;;;26.00;29.30;;;26.47;23.35;95915.72;5066265;28;20449;-56
2022/03/27 08:13:07;;;;;;;17.40;9.10;;;26.20;29.10;;;26.73;22.67;95916.69;5070916;28;20704;-57
2022/03/27 08:15:34;;;;;;;18.87;8.60;;;26.50;28.70;;;26.91;22.32;95923.22;5072149;28;20450;-57
2022/03/27 08:18:01;;;;;;;15.23;8.40;;;26.70;28.30;;;27.09;22.18;95920.63;5076444;28;20462;-55
2022/03/27 08:20:29;;;;;;;20.80;7.60;;;26.90;28.10;;;27.27;21.63;95911.78;5074695;28;20524;-56
2022/03/27 08:22:56;;;;;;;14.40;8.87;;;27.00;27.40;;;27.47;21.67;95903.53;5073709;28;20485;-57
2022/03/27 08:28:10;;;;;;;19.13;9.93;;;27.40;26.50;;;27.65;20.54;95901.94;5072185;28;20925;-57
2022/03/27 08:30:39;;;;;;;13.77;9.43;;;27.60;26.00;;;27.64;20.61;95900.31;5073953;28;20449;-58
2022/03/27 08:33:07;;;;;;;17.50;9.93;;;27.60;26.50;;;27.56;20.91;95898.69;5077433;28;20489;-55
2022/03/27 08:35:34;;;;;;;49.37;13.60;;;27.60;26.80;;;27.57;20.53;95904.94;5065974;28;20450;-52
2022/03/27 08:38:01;;;;;;;24.20;14.83;;;27.60;25.80;;;27.37;20.03;95895.09;5074167;28;20749;-57
2022/03/27 08:40:28;;;;;;;31.37;14.50;;;27.50;25.30;;;27.19;20.14;95902.06;5077227;28;20463;-57
2022/03/27 08:42:56;;;;;;;27.93;14.30;;;27.30;25.50;;;27.07;19.77;95887.63;5070298;28;20478;-53
2022/03/27 08:45:25;;;;;;;32.63;14.37;;;27.10;25.20;;;26.90;19.85;95894.59;5076517;28;20447;-55
2022/03/27 08:47:52;;;;;;;25.37;14.30;;;26.80;25.00;;;26.67;20.12;95890.56;5072326;28;20880;-56
2022/03/27 08:50:30;;;;;;;22.33;12.63;;;26.60;25.40;;;26.36;19.79;95894.00;5071298;28;20469;-57
2022/03/27 08:52:59;;;;;;;20.33;13.63;;;26.20;25.30;;;26.03;19.42;95887.69;5076777;28;20493;-57
2022/03/27 08:55:40;;;;;;;27.93;14.70;;;25.90;25.20;;;25.87;18.67;95886.25;5076152;28;20462;-55
2022/03/27 08:58:09;;;;;;;30.53;14.53;;;25.60;24.40;;;25.76;20.43;95890.41;5072350;28;20914;-55
2022/03/27 09:00:38;;;;;;;29.37;15.23;;;25.40;25.60;;;25.75;19.62;95887.94;5077927;28;20550;-56
2022/03/27 09:03:06;;;;;;;33.43;15.97;;;25.30;24.80;;;25.67;19.49;95885.44;5074262;28;21074;-56
2022/03/27 09:05:35;;;;;;;56.43;16.33;;;25.30;25.20;;;25.51;19.83;95882.13;5070888;28;20442;-57
2022/03/27 09:08:07;;;;;;;27.87;13.30;;;25.10;25.40;;;25.39;20.05;95884.66;5078445;28;20610;-55
2022/03/27 09:10:35;;;;;;;25.73;13.87;;;25.00;25.30;;;25.40;19.84;95885.47;5069234;28;20483;-58
2022/03/27 09:13:02;;;;;;;64.03;15.47;;;25.00;25.40;;;25.35;20.06;95888.78;5071155;28;20905;-57
2022/03/27 09:15:29;;;;;;;27.37;14.87;;;24.90;25.40;;;25.32;19.30;95881.13;5077294;28;20454;-56
2022/03/27 09:18:04;;;;;;;26.83;13.90;;;24.90;25.60;;;25.32;19.09;95883.81;5063738;28;20470;-57
2022/03/27 09:20:37;;;;;;;19.00;13.50;;;24.80;25.30;;;25.45;19.82;95888.38;5070589;28;20943;-60
2022/03/27 09:23:23;;;;;;;31.30;14.20;;;24.90;25.60;;;25.59;19.03;95889.19;5072725;28;21002;-57
2022/03/27 09:25:57;;;;;;;38.43;15.60;;;25.10;25.20;;;25.66;19.53;95881.94;5066877;28;20455;-58
2022/03/27 09:28:31;;;;;;;33.67;14.60;;;25.10;25.20;;;25.65;19.39;95876.75;5070776;28;20467;-59
2022/03/27 09:30:59;;;;;;;22.47;14.70;;;25.20;24.60;;;25.43;18.75;95876.97;5071428;28;20458;-57
2022/03/27 09:33:48;;;;;;;27.40;14.87;;;25.00;24.20;;;25.23;19.32;95867.00;5069486;28;20959;-56
2022/03/27 09:36:20;;;;;;;38.33;13.97;;;24.80;24.70;;;25.16;19.86;95876.09;5077556;28;20458;-58
2022/03/27 09:39:08;;;;;;;26.10;15.10;;;24.70;25.30;;;25.18;19.77;95879.44;5070720;28;20530;-57
2022/03/27 09:41:44;;;;;;;29.73;14.10;;;24.70;25.50;;;25.17;19.14;95867.81;5068320;28;20547;-57
2022/03/27 09:44:13;;;;;;;23.50;13.53;;;24.70;25.00;;;25.17;19.92;95867.00;5069528;28;20454;-56
2022/03/27 09:46:59;;;;;;;44.53;14.33;;;24.70;25.20;;;25.16;18.92;95868.88;5060314;28;20482;-57
2022/03/27 09:49:41;;;;;;;27.33;13.30;;;24.70;24.50;;;25.15;18.19;95848.38;5072925;28;20465;-57
2022/03/27 09:52:10;;;;;;;22.30;13.97;;;24.70;24.10;;;25.00;18.63;95861.19;5066660;28;20518;-57
2022/03/27 09:54:53;;;;;;;23.87;12.50;;;24.50;24.40;;;24.90;18.49;95858.91;5067382;28;20536;-56
2022/03/27 09:57:22;;;;;;;21.57;12.47;;;24.40;24.40;;;24.82;19.27;95849.19;5068308;28;20470;-58
2022/03/27 09:59:50;;;;;;;19.90;11.97;;;24.40;24.20;;;24.73;19.65;95847.72;5071851;28;20452;-55
2022/03/27 10:02:23;;;;;;;20.80;12.10;;;24.30;24.70;;;24.76;19.30;95841.94;5068891;28;20900;-56
2022/03/27 10:05:13;;;;;;;17.40;11.57;;;24.30;24.90;;;24.86;18.24;95844.22;5067272;28;20981;-56
2022/03/27 10:07:42;;;;;;;17.23;11.53;;;24.30;24.40;;;24.93;18.57;95834.28;5062669;28;20604;-59
2022/03/27 10:10:12;;;;;;;25.10;10.50;;;24.40;24.20;;;24.92;18.52;95835.31;5071791;28;20463;-58
2022/03/27 10:12:40;;;;;;;19.20;11.00;;;24.40;24.00;;;24.86;19.07;95831.59;5072078;28;20488;-57
2022/03/27 10:15:11;;;;;;;20.57;11.67;;;24.40;24.40;;;24.78;19.25;95822.88;5066743;28;20502;-61
2022/03/27 10:17:41;;;;;;;26.43;10.77;;;24.40;24.90;;;24.65;18.97;95821.03;5072405;28;20473;-54
2022/03/27 10:20:12;;;;;;;26.27;10.17;;;24.20;24.30;;;24.47;17.97;95826.94;5071588;28;20457;-56
2022/03/27 10:22:43;;;;;;;19.13;11.37;;;24.00;23.50;;;24.28;18.11;95807.88;5066147;28;20855;-54
2022/03/27 10:25:11;;;;;;;21.53;10.10;;;23.90;23.50;;;24.04;17.88;95805.72;5073449;28;20467;-57
2022/03/27 10:27:40;;;;;;;15.43;9.63;;;23.60;23.30;;;23.87;17.36;95806.06;5074726;28;20487;-57
2022/03/27 10:30:09;;;;;;;27.13;10.60;;;23.50;23.20;;;23.74;18.62;95817.53;5067305;28;20455;-56
2022/03/27 10:32:39;;;;;;;15.10;10.20;;;23.30;24.30;;;23.75;18.76;95823.72;5075298;28;20470;-57